createdAt,value
2018-12-04T00:00:43.621Z,0.95
2018-12-04T00:03:41.406Z,1.37
2018-12-04T00:06:38.530Z,2.23
2018-12-04T00:09:35.818Z,1.82
2018-12-04T00:12:35.347Z,0.72
2018-12-04T00:15:32.825Z,2.00
2018-12-04T00:18:30.352Z,0.80
2018-12-04T00:21:30.675Z,2.93
2018-12-04T00:24:28.872Z,2.12
2018-12-04T00:27:26.221Z,3.00
2018-12-04T00:30:26.866Z,2.80
2018-12-04T00:33:24.232Z,0.98
2018-12-04T00:36:21.657Z,1.50
2018-12-04T00:39:18.935Z,2.03
2018-12-04T00:42:16.557Z,1.20
2018-12-04T00:45:15.394Z,0.90
2018-12-04T00:48:12.872Z,1.42
2018-12-04T00:51:10.583Z,1.12
2018-12-04T00:54:08.568Z,1.60
2018-12-04T00:57:06.114Z,1.77
2018-12-04T01:00:04.680Z,1.35
2018-12-04T01:03:02.203Z,0.70
2018-12-04T01:05:59.259Z,1.20
2018-12-04T01:08:56.723Z,1.80
2018-12-04T01:11:54.081Z,0.72
2018-12-04T01:14:51.819Z,1.12
2018-12-04T01:17:49.706Z,1.20
2018-12-04T01:20:48.162Z,1.05
2018-12-04T01:23:45.458Z,0.95
2018-12-04T01:26:43.204Z,1.02
2018-12-04T01:29:40.954Z,1.00
2018-12-04T01:32:38.380Z,1.00
2018-12-04T01:35:35.870Z,0.80
2018-12-04T01:39:11.213Z,1.87
2018-12-04T01:41:53.599Z,0.70
2018-12-04T01:44:35.755Z,1.15
2018-12-04T01:47:19.452Z,1.22
2018-12-04T01:50:01.641Z,1.10
2018-12-04T01:52:44.508Z,2.77
2018-12-04T01:55:26.142Z,2.13
2018-12-04T01:58:08.252Z,1.37
2018-12-04T02:00:50.506Z,2.07
2018-12-04T02:03:33.426Z,1.22
2018-12-04T02:06:15.912Z,2.22
2018-12-04T02:08:58.088Z,2.15
2018-12-04T02:11:40.855Z,1.47
2018-12-04T02:14:22.689Z,2.67
2018-12-04T02:17:05.510Z,1.90
2018-12-04T02:19:47.464Z,2.02
2018-12-04T02:22:29.365Z,2.17
2018-12-04T02:25:11.739Z,1.65
2018-12-04T02:27:54.170Z,1.80
2018-12-04T02:30:36.300Z,1.30
2018-12-04T02:33:18.150Z,1.57
2018-12-04T02:35:59.833Z,2.20
2018-12-04T02:38:41.757Z,3.25
2018-12-04T02:41:24.753Z,1.95
2018-12-04T02:44:07.025Z,2.30
2018-12-04T02:46:49.059Z,2.43
2018-12-04T02:49:31.364Z,7.20
2018-12-04T02:52:14.046Z,3.60
2018-12-04T02:54:56.219Z,2.90
2018-12-04T02:57:37.777Z,1.77
2018-12-04T03:00:20.069Z,5.20
2018-12-04T03:03:02.171Z,4.15
2018-12-04T03:05:44.478Z,2.30
2018-12-04T03:08:27.323Z,4.22
2018-12-04T03:11:10.353Z,2.33
2018-12-04T03:13:52.358Z,2.43
2018-12-04T03:16:35.163Z,3.53
2018-12-04T03:19:17.334Z,6.53
2018-12-04T03:21:59.521Z,1.12
2018-12-04T03:24:41.304Z,2.67
2018-12-04T03:27:29.495Z,1.90
2018-12-04T03:30:12.059Z,2.80
2018-12-04T03:32:54.504Z,2.27
2018-12-04T03:35:36.731Z,2.50
2018-12-04T03:38:18.255Z,2.80
2018-12-04T03:41:01.666Z,4.95
2018-12-04T03:43:44.207Z,3.60
2018-12-04T03:46:25.813Z,2.97
2018-12-04T03:49:07.923Z,2.90
2018-12-04T03:51:50.500Z,1.82
2018-12-04T03:54:32.746Z,2.12
2018-12-04T03:57:14.813Z,2.20
2018-12-04T03:59:59.472Z,1.82
2018-12-04T04:02:41.217Z,2.20
2018-12-04T04:05:24.024Z,3.07
2018-12-04T04:08:07.264Z,4.90
2018-12-04T04:10:49.307Z,3.15
2018-12-04T04:13:31.423Z,4.08
2018-12-04T04:16:13.964Z,4.83
2018-12-04T04:18:56.167Z,4.45
2018-12-04T04:21:37.552Z,3.30
2018-12-04T04:24:20.106Z,2.30
2018-12-04T04:27:02.263Z,4.12
2018-12-04T04:29:44.084Z,2.37
2018-12-04T04:32:25.927Z,3.22
2018-12-04T04:35:09.912Z,1.42
2018-12-04T04:37:52.279Z,3.27
2018-12-04T04:40:33.984Z,2.90
2018-12-04T04:43:15.937Z,3.63
2018-12-04T04:45:58.131Z,2.17
2018-12-04T04:48:39.862Z,2.13
2018-12-04T04:51:22.231Z,2.57
2018-12-04T04:54:04.259Z,1.90
2018-12-04T04:56:46.545Z,1.57
2018-12-04T04:59:29.177Z,2.53
2018-12-04T05:02:11.411Z,2.50
2018-12-04T05:04:53.703Z,2.50
2018-12-04T05:07:36.168Z,3.27
2018-12-04T05:10:18.721Z,3.50
2018-12-04T05:13:01.078Z,1.92
2018-12-04T05:15:43.649Z,1.50
2018-12-04T05:18:25.623Z,2.83
2018-12-04T05:21:08.978Z,1.00
2018-12-04T05:23:51.213Z,2.80
2018-12-04T05:26:33.846Z,2.72
2018-12-04T05:29:17.364Z,2.20
2018-12-04T05:31:59.714Z,4.60
2018-12-04T05:34:41.833Z,3.33
2018-12-04T05:37:23.589Z,3.02
2018-12-04T05:40:07.224Z,5.97
2018-12-04T05:42:49.449Z,3.08
2018-12-04T05:45:31.300Z,3.27
2018-12-04T05:48:13.503Z,3.45
2018-12-04T05:50:55.306Z,4.87
2018-12-04T05:53:37.781Z,3.47
2018-12-04T05:56:20.529Z,3.25
2018-12-04T05:59:02.425Z,2.27
2018-12-04T06:01:44.348Z,3.05
2018-12-04T06:04:26.761Z,4.78
2018-12-04T06:07:08.937Z,3.77
2018-12-04T06:09:50.728Z,4.15
2018-12-04T06:12:33.011Z,3.45
2018-12-04T06:15:15.409Z,6.25
2018-12-04T06:17:57.939Z,4.45
2018-12-04T06:20:40.736Z,4.90
2018-12-04T06:23:23.513Z,5.47
2018-12-04T06:26:05.848Z,5.87
2018-12-04T06:28:48.121Z,5.67
2018-12-04T06:31:30.734Z,6.53
2018-12-04T06:34:13.087Z,5.87
2018-12-04T06:36:55.287Z,6.40
2018-12-04T06:39:37.337Z,5.95
2018-12-04T06:42:19.321Z,7.53
2018-12-04T06:45:03.996Z,7.08
2018-12-04T06:47:46.141Z,8.40
2018-12-04T06:50:28.086Z,10.43
2018-12-04T06:53:10.445Z,7.53
2018-12-04T06:55:53.219Z,7.35
2018-12-04T06:58:35.912Z,11.30
2018-12-04T07:01:18.216Z,10.70
2018-12-04T07:04:00.264Z,8.55
2018-12-04T07:06:42.853Z,10.53
2018-12-04T07:09:25.398Z,5.70
2018-12-04T07:12:07.632Z,9.20
2018-12-04T07:14:50.315Z,7.17
2018-12-04T07:17:32.063Z,6.97
2018-12-04T07:20:14.337Z,9.70
2018-12-04T07:22:57.158Z,10.03
2018-12-04T07:25:39.255Z,5.87
2018-12-04T07:28:20.895Z,9.00
2018-12-04T07:31:02.953Z,9.10
2018-12-04T07:33:45.534Z,8.60
2018-12-04T07:36:27.397Z,5.55
2018-12-04T07:39:09.854Z,8.98
2018-12-04T07:41:51.862Z,7.50
2018-12-04T07:44:33.667Z,14.47
2018-12-04T07:47:16.116Z,5.12
2018-12-04T07:49:58.275Z,12.05
2018-12-04T07:52:40.071Z,7.65
2018-12-04T07:55:21.859Z,7.60
2018-12-04T07:58:03.913Z,9.63
2018-12-04T08:00:45.805Z,6.78
2018-12-04T08:03:27.971Z,8.35
2018-12-04T08:06:11.949Z,14.00
2018-12-04T08:08:54.000Z,9.10
2018-12-04T08:11:36.339Z,11.00
2018-12-04T08:14:18.516Z,11.28
2018-12-04T08:17:00.696Z,4.83
2018-12-04T08:19:43.591Z,10.55
2018-12-04T08:22:25.765Z,10.40
2018-12-04T08:25:08.573Z,14.07
2018-12-04T08:27:50.999Z,11.65
2018-12-04T08:30:33.301Z,12.70
2018-12-04T08:33:15.964Z,13.45
2018-12-04T08:35:57.874Z,17.27
2018-12-04T08:38:39.798Z,7.80
2018-12-04T08:41:23.609Z,7.00
2018-12-04T08:44:06.234Z,13.38
2018-12-04T08:46:48.805Z,11.48
2018-12-04T08:49:31.389Z,10.18
2018-12-04T08:52:14.107Z,9.80
2018-12-04T08:54:55.886Z,12.88
2018-12-04T08:57:38.313Z,13.32
2018-12-04T09:00:20.679Z,14.03
2018-12-04T09:03:03.259Z,10.32
2018-12-04T09:05:45.443Z,8.78
2018-12-04T09:08:27.771Z,8.53
2018-12-04T09:11:10.952Z,10.03
2018-12-04T09:13:52.784Z,6.42
2018-12-04T09:16:34.634Z,7.33
2018-12-04T09:19:17.192Z,5.33
2018-12-04T09:21:59.900Z,7.05
2018-12-04T09:24:42.503Z,9.53
2018-12-04T09:27:24.719Z,6.12
2018-12-04T09:30:10.087Z,5.53
2018-12-04T09:32:52.641Z,3.05
2018-12-04T09:35:35.492Z,9.30
2018-12-04T09:38:17.441Z,7.62
2018-12-04T09:41:01.806Z,7.30
2018-12-04T09:43:51.240Z,6.17
2018-12-04T09:46:33.917Z,4.20
2018-12-04T09:49:15.754Z,3.30
2018-12-04T09:51:58.322Z,8.30
2018-12-04T09:54:40.568Z,5.65
2018-12-04T09:57:23.104Z,8.35
2018-12-04T10:00:08.347Z,7.62
2018-12-04T10:02:50.213Z,5.60
2018-12-04T10:05:32.780Z,8.08
2018-12-04T10:08:15.017Z,11.48
2018-12-04T10:10:56.984Z,10.00
2018-12-04T10:13:39.712Z,12.78
2018-12-04T10:16:22.613Z,11.33
2018-12-04T10:19:04.902Z,8.58
2018-12-04T10:21:46.874Z,10.40
2018-12-04T10:24:29.562Z,12.55
2018-12-04T10:27:11.796Z,7.95
2018-12-04T10:29:54.078Z,11.83
2018-12-04T10:32:36.416Z,10.40
2018-12-04T10:35:18.852Z,8.00
2018-12-04T10:38:01.241Z,8.55
2018-12-04T10:40:44.088Z,10.05
2018-12-04T10:43:26.509Z,8.08
2018-12-04T10:46:08.381Z,9.73
2018-12-04T10:48:50.316Z,13.58
2018-12-04T10:51:34.258Z,11.55
2018-12-04T10:54:17.365Z,7.83
2018-12-04T10:56:59.290Z,5.45
2018-12-04T10:59:41.148Z,7.45
2018-12-04T11:02:24.987Z,10.45
2018-12-04T11:05:07.941Z,8.05
2018-12-04T11:07:50.064Z,8.68
2018-12-04T11:10:32.272Z,9.98
2018-12-04T11:13:14.819Z,12.05
2018-12-04T11:15:56.343Z,6.30
2018-12-04T11:18:38.412Z,8.50
2018-12-04T11:21:20.106Z,8.50
2018-12-04T11:24:01.925Z,5.30
2018-12-04T11:26:44.232Z,6.47
2018-12-04T11:29:25.820Z,8.67
2018-12-04T11:32:08.297Z,7.17
2018-12-04T11:34:50.068Z,10.87
2018-12-04T11:37:31.885Z,9.73
2018-12-04T11:40:13.629Z,7.43
2018-12-04T11:42:55.507Z,12.97
2018-12-04T11:45:37.624Z,7.33
2018-12-04T11:48:19.518Z,7.17
2018-12-04T11:51:01.477Z,8.50
2018-12-04T11:53:43.692Z,5.57
2018-12-04T11:56:25.719Z,9.10
2018-12-04T11:59:07.381Z,12.93
2018-12-04T12:01:49.507Z,11.10
2018-12-04T12:04:31.274Z,8.00
2018-12-04T12:07:20.413Z,9.87
2018-12-04T12:09:59.044Z,12.35
2018-12-04T12:12:41.785Z,12.82
2018-12-04T12:15:24.286Z,8.78
2018-12-04T12:18:07.668Z,9.03
2018-12-04T12:20:49.577Z,6.78
2018-12-04T12:23:31.465Z,8.85
2018-12-04T12:26:13.817Z,10.30
2018-12-04T12:28:56.943Z,7.95
2018-12-04T12:31:39.825Z,7.97
2018-12-04T12:34:23.533Z,13.00
2018-12-04T12:37:06.753Z,11.05
2018-12-04T12:39:48.968Z,10.15
2018-12-04T12:42:32.265Z,13.62
2018-12-04T12:45:14.479Z,8.28
2018-12-04T12:47:56.585Z,10.55
2018-12-04T12:50:39.489Z,14.55
2018-12-04T12:53:21.280Z,11.80
2018-12-04T12:56:03.446Z,11.97
2018-12-04T12:58:45.947Z,6.80
2018-12-04T13:01:27.918Z,7.30
2018-12-04T13:04:10.877Z,14.40
2018-12-04T13:06:53.688Z,9.55
2018-12-04T13:09:36.015Z,6.10
2018-12-04T13:12:18.810Z,4.92
2018-12-04T13:15:00.605Z,6.90
2018-12-04T13:17:42.460Z,5.58
2018-12-04T13:20:24.309Z,3.67
2018-12-04T13:23:06.404Z,4.67
2018-12-04T13:25:48.449Z,5.78
2018-12-04T13:28:30.555Z,6.80
2018-12-04T13:31:13.352Z,8.45
2018-12-04T13:33:56.433Z,11.93
2018-12-04T13:36:38.809Z,8.08
2018-12-04T13:39:21.346Z,9.60
2018-12-04T13:42:03.557Z,10.15
2018-12-04T13:44:45.426Z,9.48
2018-12-04T13:47:27.872Z,6.60
2018-12-04T13:50:10.851Z,5.85
2018-12-04T13:52:52.918Z,11.12
2018-12-04T13:55:34.789Z,8.28
2018-12-04T13:58:16.777Z,8.40
2018-12-04T14:00:59.189Z,11.68
2018-12-04T14:03:42.379Z,9.58
2018-12-04T14:06:24.569Z,6.87
2018-12-04T14:09:08.371Z,12.00
2018-12-04T14:11:50.615Z,7.83
2018-12-04T14:14:32.868Z,9.98
2018-12-04T14:17:15.173Z,7.72
2018-12-04T14:19:57.833Z,11.80
2018-12-04T14:22:39.912Z,10.48
2018-12-04T14:25:21.789Z,10.70
2018-12-04T14:28:03.853Z,13.22
2018-12-04T14:30:45.824Z,7.45
2018-12-04T14:33:28.009Z,10.68
2018-12-04T14:36:10.835Z,11.93
2018-12-04T14:38:52.608Z,11.28
2018-12-04T14:41:34.494Z,10.70
2018-12-04T14:44:17.209Z,7.03
2018-12-04T14:46:59.798Z,11.12
2018-12-04T14:49:41.715Z,6.70
2018-12-04T14:52:23.726Z,12.33
2018-12-04T14:55:08.915Z,13.93
2018-12-04T14:57:52.211Z,7.42
2018-12-04T15:00:34.347Z,10.55
2018-12-04T15:03:17.112Z,11.95
2018-12-04T15:05:59.853Z,10.82
2018-12-04T15:08:43.502Z,9.08
2018-12-04T15:11:25.948Z,11.73
2018-12-04T15:14:08.815Z,12.23
2018-12-04T15:16:55.004Z,7.30
2018-12-04T15:19:35.286Z,11.22
2018-12-04T15:22:17.481Z,10.93
2018-12-04T15:25:00.262Z,11.40
2018-12-04T15:27:42.840Z,8.15
2018-12-04T15:30:25.954Z,8.90
2018-12-04T15:33:08.149Z,7.60
2018-12-04T15:35:50.726Z,10.03
2018-12-04T15:38:32.723Z,9.33
2018-12-04T15:41:15.151Z,10.03
2018-12-04T15:43:57.614Z,9.10
2018-12-04T15:46:39.907Z,8.55
2018-12-04T15:49:22.417Z,8.78
2018-12-04T15:52:05.025Z,9.58
2018-12-04T15:54:47.129Z,8.68
2018-12-04T15:57:29.093Z,9.85
2018-12-04T16:00:12.215Z,11.38
2018-12-04T16:02:55.982Z,8.23
2018-12-04T16:05:37.899Z,11.40
2018-12-04T16:08:21.530Z,8.48
2018-12-04T16:11:20.101Z,11.55
2018-12-04T16:14:01.898Z,6.97
2018-12-04T16:16:44.588Z,13.62
2018-12-04T16:19:27.043Z,20.72
2018-12-04T16:22:09.672Z,8.60
2018-12-04T16:25:05.257Z,12.35
2018-12-04T16:28:01.568Z,9.05
2018-12-04T16:30:46.165Z,10.03
2018-12-04T16:33:28.680Z,14.15
2018-12-04T16:36:11.072Z,11.50
2018-12-04T16:38:53.577Z,11.10
2018-12-04T16:41:36.052Z,12.25
2018-12-04T16:44:18.903Z,10.65
2018-12-04T16:47:01.081Z,21.25
2018-12-04T16:49:43.169Z,8.25
2018-12-04T16:52:25.704Z,10.00
2018-12-04T16:55:08.609Z,11.03
2018-12-04T16:57:51.246Z,8.78
2018-12-04T17:00:35.266Z,13.80
2018-12-04T17:03:17.323Z,9.50
2018-12-04T17:06:02.280Z,8.20
2018-12-04T17:08:44.776Z,12.58
2018-12-04T17:11:27.218Z,8.08
2018-12-04T17:14:09.678Z,9.90
2018-12-04T17:16:51.987Z,7.67
2018-12-04T17:19:35.016Z,10.15
2018-12-04T17:22:19.328Z,4.87
2018-12-04T17:25:01.815Z,6.25
2018-12-04T17:30:33.119Z,10.38
2018-12-04T17:33:15.637Z,13.22
2018-12-04T17:35:59.642Z,13.45
2018-12-04T17:38:42.206Z,7.30
2018-12-04T17:41:24.873Z,10.58
2018-12-04T17:44:08.125Z,9.38
2018-12-04T17:46:50.804Z,11.12
2018-12-04T17:49:36.185Z,7.55
2018-12-04T17:52:19.264Z,8.85
2018-12-04T17:55:02.855Z,8.55
2018-12-04T17:57:47.739Z,7.10
2018-12-04T18:00:30.391Z,6.58
2018-12-04T18:03:14.229Z,9.25
2018-12-04T18:05:57.246Z,10.65
2018-12-04T18:08:41.974Z,11.18
2018-12-04T18:11:25.798Z,9.65
2018-12-04T18:14:09.038Z,14.18
2018-12-04T18:16:52.103Z,9.30
2018-12-04T18:19:35.843Z,12.65
2018-12-04T18:22:20.790Z,15.48
2018-12-04T18:25:02.748Z,11.45
2018-12-04T18:27:46.007Z,9.48
2018-12-04T18:30:29.128Z,9.65
2018-12-04T18:33:11.509Z,6.58
2018-12-04T18:35:53.920Z,10.40
2018-12-04T18:38:36.352Z,13.83
2018-12-04T18:41:19.794Z,14.50
2018-12-04T18:44:02.966Z,9.08
2018-12-04T18:46:44.780Z,8.13
2018-12-04T18:49:26.687Z,12.93
2018-12-04T18:52:08.997Z,11.48
2018-12-04T18:54:51.995Z,15.48
2018-12-04T18:57:34.529Z,13.45
2018-12-04T19:00:16.941Z,14.47
2018-12-04T19:02:59.343Z,15.43
2018-12-04T19:05:42.735Z,10.40
2018-12-04T19:08:37.000Z,13.18
2018-12-04T19:11:19.205Z,11.95
2018-12-04T19:14:00.987Z,17.37
2018-12-04T19:16:42.870Z,11.33
2018-12-04T19:19:25.546Z,21.80
2018-12-04T19:22:08.347Z,17.07
2018-12-04T19:24:50.140Z,10.05
2018-12-04T19:27:32.893Z,10.48
2018-12-04T19:30:16.948Z,14.20
2018-12-04T19:32:58.940Z,8.90
2018-12-04T19:35:41.933Z,11.38
2018-12-04T19:38:24.228Z,8.18
2018-12-04T19:41:06.277Z,14.03
2018-12-04T19:43:48.533Z,10.78
2018-12-04T19:46:31.249Z,9.90
2018-12-04T19:49:13.291Z,8.03
2018-12-04T19:51:55.748Z,11.33
2018-12-04T19:54:37.844Z,14.90
2018-12-04T19:57:19.842Z,5.92
2018-12-04T20:00:01.901Z,12.03
2018-12-04T20:02:44.309Z,12.70
2018-12-04T20:05:26.788Z,11.97
2018-12-04T20:08:09.317Z,12.80
2018-12-04T20:10:51.396Z,8.53
2018-12-04T20:13:34.013Z,11.43
2018-12-04T20:16:17.212Z,8.95
2018-12-04T20:18:59.327Z,10.30
2018-12-04T20:21:42.306Z,11.97
2018-12-04T20:24:24.288Z,11.43
2018-12-04T20:27:06.450Z,9.73
2018-12-04T20:29:48.843Z,9.48
2018-12-04T20:32:30.756Z,13.85
2018-12-04T20:35:13.495Z,8.35
2018-12-04T20:37:55.353Z,10.58
2018-12-04T20:40:37.742Z,8.95
2018-12-04T20:43:19.639Z,10.78
2018-12-04T20:46:05.886Z,9.28
2018-12-04T20:48:46.104Z,4.55
2018-12-04T20:51:28.487Z,6.87
2018-12-04T20:54:10.635Z,12.88
2018-12-04T20:56:53.737Z,8.48
2018-12-04T20:59:36.381Z,14.80
2018-12-04T21:02:19.147Z,9.10
2018-12-04T21:05:01.237Z,14.73
2018-12-04T21:07:43.940Z,11.75
2018-12-04T21:10:25.910Z,10.20
2018-12-04T21:13:14.282Z,15.83
2018-12-04T21:15:53.716Z,12.00
2018-12-04T21:18:35.656Z,12.30
2018-12-04T21:21:17.919Z,9.60
2018-12-04T21:24:00.487Z,8.15
2018-12-04T21:26:42.875Z,11.80
2018-12-04T21:31:39.955Z,12.43
2018-12-04T21:34:26.579Z,12.00
2018-12-04T21:37:13.779Z,12.63
2018-12-04T21:40:01.328Z,13.90
2018-12-04T21:42:49.365Z,8.78
2018-12-04T21:45:37.028Z,10.32
2018-12-04T21:48:21.381Z,11.33
2018-12-04T21:51:03.863Z,7.72
2018-12-04T21:53:45.723Z,15.05
2018-12-04T21:56:27.734Z,11.35
2018-12-04T21:59:10.428Z,7.50
2018-12-04T22:01:53.056Z,6.67
2018-12-04T22:04:35.357Z,9.00
2018-12-04T22:07:18.053Z,10.03
2018-12-04T22:10:00.420Z,7.65
2018-12-04T22:12:42.297Z,13.13
2018-12-04T22:15:24.644Z,15.18
2018-12-04T22:18:08.375Z,15.40
2018-12-04T22:20:51.739Z,9.15
2018-12-04T22:23:34.123Z,7.72
2018-12-04T22:26:16.485Z,6.95
2018-12-04T22:28:58.654Z,13.25
2018-12-04T22:31:40.628Z,11.28
2018-12-04T22:34:22.512Z,9.05
2018-12-04T22:37:05.301Z,9.40
2018-12-04T22:39:47.222Z,11.63
2018-12-04T22:42:30.530Z,11.05
2018-12-04T22:45:18.040Z,11.48
2018-12-04T22:48:01.070Z,12.70
2018-12-04T22:50:43.425Z,10.53
2018-12-04T22:53:25.321Z,7.78
2018-12-04T22:56:07.923Z,12.55
2018-12-04T22:58:49.998Z,9.05
2018-12-04T23:01:41.569Z,10.13
2018-12-04T23:04:23.530Z,15.68
2018-12-04T23:07:05.665Z,8.73
2018-12-04T23:09:48.320Z,17.75
2018-12-04T23:12:31.071Z,10.28
2018-12-04T23:15:13.286Z,14.87
2018-12-04T23:17:55.669Z,11.43
2018-12-04T23:20:37.589Z,13.18
2018-12-04T23:23:19.752Z,8.03
2018-12-04T23:26:01.540Z,12.00
2018-12-04T23:28:43.386Z,11.20
2018-12-04T23:31:25.496Z,10.28
2018-12-04T23:34:07.382Z,12.45
2018-12-04T23:36:49.481Z,6.85
2018-12-04T23:39:31.795Z,13.03
2018-12-04T23:42:13.966Z,11.20
2018-12-04T23:44:56.273Z,9.30
2018-12-04T23:47:38.111Z,8.55
2018-12-04T23:50:20.030Z,12.50
2018-12-04T23:53:02.368Z,9.70
2018-12-04T23:55:44.789Z,9.88
2018-12-04T23:58:26.740Z,16.15
